Terminal Aerodrome Forecast
Issued by NWS

Home | Current Version | Previous Version | Text Only | Print | Product List | Glossary On
Versions: 1 2 3 4 5 6 7 8 9 10 11 12 13 14 15 16 17 18 19 20 21 22 23 24 25
000
FTUS43 KDLH 251740
TAFHIB
TAF
KHIB 251740Z 2518/2618 32011KT P6SM BKN045 BKN060
     FM252100 26007KT P6SM VCSH BKN015
     FM260200 VRB05KT P6SM -SN OVC035
     FM261100 VRB03KT 4SM -SN BKN025
     FM261300 VRB03KT 2SM -SHSN OVC025
     FM261600 34006KT P6SM BKN025=

USA.gov is the U.S. government's official web portal to all federal, state and local government web resources and services.